Time;durP1;ratioP1;P1;durP2;ratioP2;P2;SDS_P1;SDS_P2;PMS_P1;PMS_P2;Temp;Humidity;BMP_temperature;BMP_pressure;BME280_temperature;BME280_humidity;BME280_pressure;Samples;Min_cycle;Max_cycle;Signal;HPM_P1;HPM_P2
2023/01/09 00:00:23;;;;;;;;;;;8.30;99.90;;;;;;4995457;28;19910;-84
2023/01/09 00:03:36;;;;;;;;;;;8.20;99.90;;;;;;4989735;28;19977;-84
2023/01/09 00:06:25;;;;;;;;;;;8.20;99.90;;;;;;5014029;28;19981;-84
2023/01/09 00:09:03;;;;;;;;;;;8.10;99.90;;;;;;5018314;28;19931;-84
2023/01/09 00:11:28;;;;;;;;;;;8.10;99.90;;;;;;5079164;28;19956;-84
2023/01/09 00:13:54;;;;;;;;;;;8.10;99.90;;;;;;5096673;28;19912;-83
2023/01/09 00:16:19;;;;;;;;;;;8.10;99.90;;;;;;5079596;28;19904;-84
2023/01/09 00:18:45;;;;;;;;;;;8.20;99.90;;;;;;5079190;28;19935;-84
2023/01/09 00:21:13;;;;;;;;;;;8.20;99.90;;;;;;5078795;28;19912;-83
2023/01/09 00:23:39;;;;;;;;;;;8.20;99.90;;;;;;5079491;28;19916;-85
2023/01/09 00:26:16;;;;;;;;;;;8.20;99.90;;;;;;5079766;28;19920;-84
2023/01/09 00:28:42;;;;;;;;;;;8.20;99.90;;;;;;5095946;28;19916;-84
2023/01/09 00:31:08;;;;;;;;;;;8.20;99.90;;;;;;5079047;28;19909;-85
2023/01/09 00:33:35;;;;;;;;;;;8.30;99.90;;;;;;5079428;28;19920;-84
2023/01/09 00:36:00;;;;;;;;;;;8.30;99.90;;;;;;5079160;28;19956;-84
2023/01/09 00:38:26;;;;;;;;;;;8.10;99.90;;;;;;5079337;28;19893;-84
2023/01/09 00:40:53;;;;;;;;;;;8.10;99.90;;;;;;5096588;28;19908;-84
2023/01/09 00:43:19;;;;;;;;;;;8.00;99.90;;;;;;5096540;28;19918;-85
2023/01/09 00:45:44;;;;;;;;;;;8.00;99.90;;;;;;5079541;28;19952;-85
2023/01/09 00:48:11;;;;;;;;;;;7.90;99.90;;;;;;5096608;28;19924;-84
2023/01/09 00:50:37;;;;;;;;;;;8.00;99.90;;;;;;5080138;28;19916;-85
2023/01/09 00:53:07;;;;;;;;;;;8.00;99.90;;;;;;5079371;28;19984;-84
2023/01/09 00:55:34;;;;;;;;;;;7.90;99.90;;;;;;5079685;28;19948;-84
2023/01/09 00:57:59;;;;;;;;;;;8.00;99.90;;;;;;5079506;28;19943;-85
2023/01/09 01:00:25;;;;;;;;;;;8.00;99.90;;;;;;5096758;28;19908;-85
2023/01/09 01:02:50;;;;;;;;;;;7.90;99.90;;;;;;5078994;28;19893;-84
2023/01/09 01:08:00;;;;;;;;;;;7.80;99.90;;;;;;5096652;28;20002;-85
2023/01/09 01:10:26;;;;;;;;;;;7.80;99.90;;;;;;5079385;28;19924;-84
2023/01/09 01:12:52;;;;;;;;;;;7.90;99.90;;;;;;5078941;28;19909;-84
2023/01/09 01:15:17;;;;;;;;;;;7.90;99.90;;;;;;5079463;28;19930;-84
2023/01/09 01:17:43;;;;;;;;;;;7.90;99.90;;;;;;5078988;28;19930;-84
2023/01/09 01:20:10;;;;;;;;;;;7.90;99.90;;;;;;5079483;28;19914;-84
2023/01/09 01:22:35;;;;;;;;;;;7.90;99.90;;;;;;5079301;28;19908;-84
2023/01/09 01:25:02;;;;;;;;;;;8.00;99.90;;;;;;5079128;28;19912;-85
2023/01/09 01:27:28;;;;;;;;;;;7.90;99.90;;;;;;5079194;28;19921;-84
2023/01/09 01:29:53;;;;;;;;;;;7.90;99.90;;;;;;5079814;28;19897;-85
2023/01/09 01:32:19;;;;;;;;;;;8.00;99.90;;;;;;5079149;28;19915;-85
2023/01/09 01:34:44;;;;;;;;;;;8.10;99.90;;;;;;5079014;28;19912;-85
2023/01/09 01:37:10;;;;;;;;;;;8.10;99.90;;;;;;5079440;28;19913;-85
2023/01/09 01:39:35;;;;;;;;;;;8.10;99.90;;;;;;5080340;28;19934;-84
2023/01/09 01:42:02;;;;;;;;;;;8.20;99.90;;;;;;5082975;28;19951;-84
2023/01/09 01:44:47;;;;;;;;;;;8.20;99.90;;;;;;5083277;28;19937;-84
2023/01/09 01:47:13;;;;;;;;;;;8.20;99.90;;;;;;5082999;28;19920;-84
2023/01/09 01:49:38;;;;;;;;;;;8.30;99.90;;;;;;5082859;28;19897;-84
2023/01/09 01:52:04;;;;;;;;;;;8.20;99.90;;;;;;5082707;28;19915;-84
2023/01/09 01:54:30;;;;;;;;;;;8.20;99.90;;;;;;5082781;28;19903;-85
2023/01/09 01:57:00;;;;;;;;;;;8.30;99.90;;;;;;5083050;28;19924;-85
2023/01/09 01:59:27;;;;;;;;;;;8.30;99.90;;;;;;5082458;28;20026;-85
2023/01/09 02:01:55;;;;;;;;;;;8.40;99.90;;;;;;5099770;28;19913;-84
2023/01/09 02:04:20;;;;;;;;;;;8.40;99.90;;;;;;5082606;28;19935;-85
2023/01/09 02:06:47;;;;;;;;;;;8.40;99.90;;;;;;5082291;28;19897;-83
2023/01/09 02:09:14;;;;;;;;;;;8.30;99.90;;;;;;5082940;28;19896;-85
2023/01/09 02:11:46;;;;;;;;;;;8.40;99.90;;;;;;5082433;28;19901;-84
2023/01/09 02:14:13;;;;;;;;;;;8.40;99.90;;;;;;5082477;28;19900;-84
2023/01/09 02:16:53;;;;;;;;;;;8.40;99.90;;;;;;5082221;28;19943;-84
2023/01/09 02:19:24;;;;;;;;;;;8.40;99.90;;;;;;5082587;28;19968;-84
2023/01/09 02:22:08;;;;;;;;;;;8.40;99.90;;;;;;5099529;28;19907;-84
2023/01/09 02:24:43;;;;;;;;;;;8.40;99.90;;;;;;5081871;28;19935;-83
2023/01/09 02:27:17;;;;;;;;;;;8.30;99.90;;;;;;5099392;28;19947;-84
2023/01/09 02:30:01;;;;;;;;;;;8.40;99.90;;;;;;5081978;28;19904;-84
2023/01/09 02:32:42;;;;;;;;;;;8.40;99.90;;;;;;5082133;28;19905;-84
2023/01/09 02:35:30;;;;;;;;;;;8.50;99.90;;;;;;5082028;28;19913;-84
2023/01/09 02:38:09;;;;;;;;;;;8.40;99.90;;;;;;5081643;28;19952;-84
2023/01/09 02:40:39;;;;;;;;;;;8.30;99.90;;;;;;5081949;28;19901;-83
2023/01/09 02:43:06;;;;;;;;;;;8.30;99.90;;;;;;5098924;28;19912;-84
2023/01/09 02:45:31;;;;;;;;;;;8.30;99.90;;;;;;5081594;28;19943;-85
2023/01/09 02:47:57;;;;;;;;;;;8.30;99.90;;;;;;5081649;28;19916;-84
2023/01/09 02:50:25;;;;;;;;;;;8.30;99.90;;;;;;5081022;28;19901;-84
2023/01/09 02:53:07;;;;;;;;;;;8.40;99.90;;;;;;5098511;28;19936;-84
2023/01/09 02:55:42;;;;;;;;;;;8.30;99.90;;;;;;5081503;28;19947;-84
2023/01/09 02:58:43;;;;;;;;;;;8.40;99.90;;;;;;5081761;28;19897;-84
2023/01/09 03:01:31;;;;;;;;;;;8.40;99.90;;;;;;5001629;28;19924;-84
2023/01/09 03:04:13;;;;;;;;;;;8.40;99.90;;;;;;5076727;28;19920;-83
2023/01/09 03:07:00;;;;;;;;;;;8.40;99.90;;;;;;5081241;28;19919;-85
2023/01/09 03:09:28;;;;;;;;;;;8.40;99.90;;;;;;5098038;28;19944;-84
2023/01/09 03:11:58;;;;;;;;;;;8.40;99.90;;;;;;5098458;28;19964;-84
2023/01/09 03:14:24;;;;;;;;;;;8.30;99.90;;;;;;5080812;28;19913;-84
2023/01/09 03:16:54;;;;;;;;;;;8.20;99.90;;;;;;5080753;28;19919;-84
2023/01/09 03:19:20;;;;;;;;;;;8.10;99.90;;;;;;5081027;28;19950;-84
2023/01/09 03:21:46;;;;;;;;;;;8.00;99.90;;;;;;5079629;28;19903;-84
2023/01/09 03:24:12;;;;;;;;;;;7.90;99.90;;;;;;5097349;28;19908;-85
2023/01/09 03:26:38;;;;;;;;;;;7.80;99.90;;;;;;5079885;28;19909;-84
2023/01/09 03:29:03;;;;;;;;;;;7.70;99.90;;;;;;5080515;28;19908;-83
2023/01/09 03:31:29;;;;;;;;;;;7.60;99.90;;;;;;5079881;28;19959;-83
2023/01/09 03:33:54;;;;;;;;;;;7.60;99.90;;;;;;5080014;28;19980;-84
2023/01/09 03:36:20;;;;;;;;;;;7.50;99.90;;;;;;5080097;28;19912;-84
2023/01/09 03:38:45;;;;;;;;;;;7.50;99.90;;;;;;5080090;28;19907;-84
2023/01/09 03:41:11;;;;;;;;;;;7.40;99.90;;;;;;5079655;28;19951;-83
2023/01/09 03:43:36;;;;;;;;;;;7.30;99.90;;;;;;5079639;28;19936;-84
2023/01/09 03:46:02;;;;;;;;;;;7.30;99.90;;;;;;5096983;28;19908;-84
2023/01/09 03:48:28;;;;;;;;;;;7.30;99.90;;;;;;5079942;28;19904;-84
2023/01/09 03:50:54;;;;;;;;;;;7.30;99.90;;;;;;5080074;28;19972;-84
2023/01/09 03:53:20;;;;;;;;;;;7.20;99.90;;;;;;5079824;28;19916;-84
2023/01/09 03:55:47;;;;;;;;;;;7.20;99.90;;;;;;5079714;28;19912;-83
2023/01/09 03:58:13;;;;;;;;;;;7.30;99.90;;;;;;5079809;28;19919;-84
2023/01/09 04:00:39;;;;;;;;;;;7.20;99.90;;;;;;5079964;28;19908;-84
2023/01/09 04:03:05;;;;;;;;;;;7.20;99.90;;;;;;5078964;28;19936;-83
2023/01/09 04:05:30;;;;;;;;;;;7.10;99.90;;;;;;5079808;28;19938;-84
2023/01/09 04:07:56;;;;;;;;;;;7.10;99.90;;;;;;5096685;28;19905;-84
2023/01/09 04:10:21;;;;;;;;;;;7.10;99.90;;;;;;5096692;28;19963;-84
2023/01/09 04:12:47;;;;;;;;;;;7.10;99.90;;;;;;5079186;28;19924;-83
2023/01/09 04:15:12;;;;;;;;;;;7.00;99.90;;;;;;5079349;28;19904;-83
2023/01/09 04:17:38;;;;;;;;;;;7.00;99.90;;;;;;5079198;28;19913;-84
2023/01/09 04:20:03;;;;;;;;;;;7.00;99.90;;;;;;5079334;28;19916;-84
2023/01/09 04:22:30;;;;;;;;;;;7.00;99.90;;;;;;5096627;28;19913;-84
2023/01/09 04:24:55;;;;;;;;;;;7.00;99.90;;;;;;5095971;28;19998;-84
2023/01/09 04:27:21;;;;;;;;;;;7.00;99.90;;;;;;5079332;28;19921;-84
2023/01/09 04:29:46;;;;;;;;;;;7.00;99.90;;;;;;5096334;28;19904;-82
2023/01/09 04:32:12;;;;;;;;;;;6.90;99.90;;;;;;5079306;28;19909;-84
2023/01/09 04:34:37;;;;;;;;;;;6.90;99.90;;;;;;5079157;28;19908;-84
2023/01/09 04:37:03;;;;;;;;;;;6.90;99.90;;;;;;5078868;28;19909;-84
2023/01/09 04:39:28;;;;;;;;;;;6.80;99.90;;;;;;5078332;28;19899;-84
2023/01/09 04:41:54;;;;;;;;;;;6.80;99.90;;;;;;5078170;28;19908;-84
2023/01/09 04:44:20;;;;;;;;;;;7.00;99.90;;;;;;5078512;28;19932;-83
2023/01/09 04:46:46;;;;;;;;;;;7.10;99.90;;;;;;5078498;28;19918;-84
2023/01/09 04:49:12;;;;;;;;;;;7.20;99.90;;;;;;5096316;28;19912;-84
2023/01/09 04:51:37;;;;;;;;;;;7.30;99.90;;;;;;5078518;28;19903;-83
2023/01/09 04:54:03;;;;;;;;;;;7.40;99.90;;;;;;5078102;28;19950;-84
2023/01/09 04:56:28;;;;;;;;;;;7.40;99.90;;;;;;5078691;28;19931;-84
2023/01/09 04:58:54;;;;;;;;;;;7.50;99.90;;;;;;5078644;28;19972;-84
2023/01/09 05:01:19;;;;;;;;;;;7.50;99.90;;;;;;5095637;28;19913;-84
2023/01/09 05:03:45;;;;;;;;;;;7.60;99.90;;;;;;5078830;28;19904;-84
2023/01/09 05:06:10;;;;;;;;;;;7.60;99.90;;;;;;5095821;28;19915;-83
2023/01/09 05:08:36;;;;;;;;;;;7.60;99.90;;;;;;5078730;28;19915;-83
2023/01/09 05:11:01;;;;;;;;;;;7.60;99.90;;;;;;5075832;28;19913;-84
2023/01/09 05:13:27;;;;;;;;;;;7.60;99.90;;;;;;5077797;28;19892;-83
2023/01/09 05:15:52;;;;;;;;;;;7.50;99.90;;;;;;5082193;28;19963;-84
2023/01/09 05:18:18;;;;;;;;;;;7.60;99.90;;;;;;5081588;28;19938;-83
2023/01/09 05:20:43;;;;;;;;;;;7.60;99.90;;;;;;5078918;28;19915;-84
2023/01/09 05:23:09;;;;;;;;;;;7.70;99.90;;;;;;5078817;28;19942;-84
2023/01/09 05:25:34;;;;;;;;;;;7.70;99.90;;;;;;5096328;28;19916;-83
2023/01/09 05:28:00;;;;;;;;;;;7.70;99.90;;;;;;5079504;28;19916;-83
2023/01/09 05:30:26;;;;;;;;;;;7.80;99.90;;;;;;5079343;28;19908;-84
2023/01/09 05:32:52;;;;;;;;;;;7.80;99.90;;;;;;5097945;28;19909;-84
2023/01/09 05:35:17;;;;;;;;;;;7.80;99.90;;;;;;5082209;28;19923;-84
2023/01/09 05:37:43;;;;;;;;;;;7.80;99.90;;;;;;5099844;28;19896;-84
2023/01/09 05:40:08;;;;;;;;;;;7.80;99.90;;;;;;5081881;28;19940;-84
2023/01/09 05:42:34;;;;;;;;;;;7.90;99.90;;;;;;5099127;28;19947;-84
2023/01/09 05:44:59;;;;;;;;;;;7.90;99.90;;;;;;5082274;28;19951;-84
2023/01/09 05:47:25;;;;;;;;;;;7.90;99.90;;;;;;5082021;28;20050;-84
2023/01/09 05:49:50;;;;;;;;;;;7.90;99.90;;;;;;5081398;28;19897;-84
2023/01/09 05:52:16;;;;;;;;;;;7.90;99.90;;;;;;5081430;28;19915;-82
2023/01/09 05:54:41;;;;;;;;;;;7.90;99.90;;;;;;5081910;28;19897;-84
2023/01/09 05:57:07;;;;;;;;;;;8.00;99.90;;;;;;5081986;28;19963;-83
2023/01/09 05:59:32;;;;;;;;;;;8.00;99.90;;;;;;5099674;28;19892;-83
2023/01/09 06:01:58;;;;;;;;;;;8.00;99.90;;;;;;5081824;28;19908;-84
2023/01/09 06:04:24;;;;;;;;;;;8.00;99.90;;;;;;5082324;28;19975;-83
2023/01/09 06:06:49;;;;;;;;;;;8.00;99.90;;;;;;5098678;28;19909;-82
2023/01/09 06:09:15;;;;;;;;;;;8.10;99.90;;;;;;5081058;28;19915;-84
2023/01/09 06:11:40;;;;;;;;;;;8.10;99.90;;;;;;5081072;28;19909;-83
2023/01/09 06:14:06;;;;;;;;;;;8.10;99.90;;;;;;5081912;28;19897;-83
2023/01/09 06:16:31;;;;;;;;;;;8.10;99.90;;;;;;5098782;28;19897;-84
2023/01/09 06:18:57;;;;;;;;;;;8.10;99.90;;;;;;5098643;28;19912;-84
2023/01/09 06:21:23;;;;;;;;;;;8.10;99.90;;;;;;5080583;28;19916;-84
2023/01/09 06:23:48;;;;;;;;;;;8.10;99.90;;;;;;5080628;28;19922;-83
2023/01/09 06:26:14;;;;;;;;;;;8.10;99.90;;;;;;5080146;28;19944;-83
2023/01/09 06:28:39;;;;;;;;;;;8.10;99.90;;;;;;5081192;28;19916;-83
2023/01/09 06:31:05;;;;;;;;;;;8.10;99.90;;;;;;5098192;28;19912;-84
2023/01/09 06:33:31;;;;;;;;;;;8.20;99.90;;;;;;5081234;28;19908;-83
2023/01/09 06:35:56;;;;;;;;;;;8.20;99.90;;;;;;5080863;28;19908;-83
2023/01/09 06:38:22;;;;;;;;;;;8.20;99.90;;;;;;5098357;28;19924;-84
2023/01/09 06:40:49;;;;;;;;;;;8.20;99.90;;;;;;5081059;28;19908;-84
2023/01/09 06:43:14;;;;;;;;;;;8.20;99.90;;;;;;5080977;28;19893;-83
2023/01/09 06:45:41;;;;;;;;;;;8.30;99.90;;;;;;5080985;28;19912;-83
2023/01/09 06:48:06;;;;;;;;;;;8.30;99.90;;;;;;5080488;28;19920;-82
2023/01/09 06:50:32;;;;;;;;;;;8.30;99.90;;;;;;5081217;28;19956;-84
2023/01/09 06:53:01;;;;;;;;;;;8.30;99.90;;;;;;5078480;28;19909;-82
2023/01/09 06:55:27;;;;;;;;;;;8.30;99.90;;;;;;5079446;28;19942;-82
2023/01/09 06:57:52;;;;;;;;;;;8.30;99.90;;;;;;5095524;28;19908;-83
2023/01/09 07:00:18;;;;;;;;;;;8.30;99.90;;;;;;5078122;28;19915;-85
2023/01/09 07:02:43;;;;;;;;;;;8.30;99.90;;;;;;5078434;28;19940;-83
2023/01/09 07:05:10;;;;;;;;;;;8.40;99.90;;;;;;5077839;28;19909;-83
2023/01/09 07:07:39;;;;;;;;;;;8.40;99.90;;;;;;5078530;28;19939;-84
2023/01/09 07:10:06;;;;;;;;;;;8.40;99.90;;;;;;5078190;28;19970;-84
2023/01/09 07:12:31;;;;;;;;;;;8.40;99.90;;;;;;5076573;28;20101;-84
2023/01/09 07:14:57;;;;;;;;;;;8.40;99.90;;;;;;5078241;28;19932;-84
2023/01/09 07:17:22;;;;;;;;;;;8.40;99.90;;;;;;5077747;28;19936;-82
2023/01/09 07:19:48;;;;;;;;;;;8.30;99.90;;;;;;5077569;28;19919;-84
2023/01/09 07:22:13;;;;;;;;;;;8.40;99.90;;;;;;5077773;28;19908;-84
2023/01/09 07:24:39;;;;;;;;;;;8.40;99.90;;;;;;5078162;28;20518;-84
2023/01/09 07:27:04;;;;;;;;;;;8.40;99.90;;;;;;5077966;28;19919;-83
2023/01/09 07:29:30;;;;;;;;;;;8.40;99.90;;;;;;5077501;28;19997;-82
2023/01/09 07:31:55;;;;;;;;;;;8.40;99.90;;;;;;5093975;28;19908;-83
2023/01/09 07:34:21;;;;;;;;;;;8.40;99.90;;;;;;5077547;28;19912;-82
2023/01/09 07:36:47;;;;;;;;;;;8.40;99.90;;;;;;5077815;28;19908;-83
2023/01/09 07:39:13;;;;;;;;;;;8.40;99.90;;;;;;5077070;28;19908;-84
2023/01/09 07:41:38;;;;;;;;;;;8.40;99.90;;;;;;5076607;28;19980;-83
2023/01/09 07:44:04;;;;;;;;;;;8.40;99.90;;;;;;5094415;28;19973;-82
2023/01/09 07:46:29;;;;;;;;;;;8.40;99.90;;;;;;5077753;28;19909;-82
2023/01/09 07:48:55;;;;;;;;;;;8.40;99.90;;;;;;5077287;28;19923;-83
2023/01/09 07:51:20;;;;;;;;;;;8.40;99.90;;;;;;5077893;28;19934;-82
2023/01/09 07:53:46;;;;;;;;;;;8.40;99.90;;;;;;5077410;28;19893;-83
2023/01/09 07:56:11;;;;;;;;;;;8.40;99.90;;;;;;5095579;28;19915;-84
2023/01/09 07:58:37;;;;;;;;;;;8.50;99.90;;;;;;5078345;28;19962;-83
2023/01/09 08:01:03;;;;;;;;;;;8.40;99.90;;;;;;5094385;28;19919;-83
2023/01/09 08:03:28;;;;;;;;;;;8.40;99.90;;;;;;5077370;28;20297;-84
2023/01/09 08:05:54;;;;;;;;;;;8.40;99.90;;;;;;5078630;28;19935;-83
2023/01/09 08:08:19;;;;;;;;;;;8.40;99.90;;;;;;5095321;28;19932;-83
2023/01/09 08:10:45;;;;;;;;;;;8.50;99.90;;;;;;5077730;28;19915;-84
2023/01/09 08:13:10;;;;;;;;;;;8.50;99.90;;;;;;5094466;28;19908;-84
2023/01/09 08:15:36;;;;;;;;;;;8.50;99.90;;;;;;5077357;28;19893;-83
2023/01/09 08:18:02;;;;;;;;;;;8.50;99.90;;;;;;5077973;28;19897;-82
2023/01/09 08:20:27;;;;;;;;;;;8.50;99.90;;;;;;5078488;28;20484;-84
2023/01/09 08:22:53;;;;;;;;;;;8.60;99.90;;;;;;5096564;28;19955;-82
2023/01/09 08:25:19;;;;;;;;;;;8.60;99.90;;;;;;5078779;28;19919;-84
2023/01/09 08:27:45;;;;;;;;;;;8.60;99.90;;;;;;5095278;28;19909;-84
2023/01/09 08:30:11;;;;;;;;;;;8.60;99.90;;;;;;5095647;28;19909;-82
2023/01/09 08:32:37;;;;;;;;;;;8.60;99.90;;;;;;5077476;28;19909;-82
2023/01/09 08:35:02;;;;;;;;;;;8.60;99.90;;;;;;5077306;28;19892;-82
2023/01/09 08:37:28;;;;;;;;;;;8.70;99.90;;;;;;5078291;28;19911;-84
2023/01/09 08:39:53;;;;;;;;;;;8.70;99.90;;;;;;5078235;28;19916;-84
2023/01/09 08:47:47;;;;;;;;;;;8.70;99.90;;;;;;5100815;28;20011;-83
2023/01/09 08:50:13;;;;;;;;;;;8.60;99.90;;;;;;5090555;28;19908;-82
2023/01/09 08:52:38;;;;;;;;;;;8.50;99.90;;;;;;5090869;28;19908;-82
2023/01/09 08:55:04;;;;;;;;;;;8.50;99.90;;;;;;5079853;28;19912;-81
2023/01/09 08:57:30;;;;;;;;;;;8.50;99.90;;;;;;5080188;28;19915;-81
2023/01/09 08:59:55;;;;;;;;;;;8.50;99.90;;;;;;5080574;28;19915;-82
2023/01/09 09:02:21;;;;;;;;;;;8.50;99.90;;;;;;5080258;28;19957;-82
2023/01/09 09:04:46;;;;;;;;;;;8.50;99.90;;;;;;5078746;28;20020;-81
2023/01/09 09:07:13;;;;;;;;;;;8.50;99.90;;;;;;5094562;28;20373;-81
2023/01/09 09:09:38;;;;;;;;;;;8.50;99.90;;;;;;5073819;28;19912;-80
2023/01/09 09:12:04;;;;;;;;;;;8.60;99.90;;;;;;5076335;28;20370;-79
2023/01/09 09:17:14;;;;;;;;;;;8.60;99.90;;;;;;5090229;28;19960;-80
2023/01/09 09:19:41;;;;;;;;;;;8.60;99.90;;;;;;5078330;28;20361;-80
2023/01/09 09:22:06;;;;;;;;;;;8.60;99.90;;;;;;5077562;28;19912;-80
2023/01/09 09:24:32;;;;;;;;;;;8.60;99.90;;;;;;5077856;28;20002;-80
2023/01/09 09:26:57;;;;;;;;;;;8.60;99.90;;;;;;5096405;28;19917;-80
2023/01/09 09:29:23;;;;;;;;;;;8.40;99.90;;;;;;5096133;28;19966;-80
2023/01/09 09:31:48;;;;;;;;;;;8.40;99.90;;;;;;5077840;28;19908;-83
2023/01/09 09:34:14;;;;;;;;;;;8.40;99.90;;;;;;5078038;28;19962;-84
2023/01/09 09:36:40;;;;;;;;;;;8.50;99.90;;;;;;5096696;28;19940;-83
2023/01/09 09:39:07;;;;;;;;;;;8.40;99.90;;;;;;5096836;28;19908;-82
2023/01/09 09:44:43;;;;;;;;;;;8.40;99.90;;;;;;5096568;28;19938;-83
2023/01/09 09:47:15;;;;;;;;;;;8.50;99.90;;;;;;5079015;28;20313;-83
2023/01/09 09:49:59;;;;;;;;;;;8.50;99.90;;;;;;5079808;28;19915;-82
2023/01/09 09:52:29;;;;;;;;;;;8.50;99.90;;;;;;5077362;28;19916;-83
2023/01/09 09:54:57;;;;;;;;;;;8.40;99.90;;;;;;5079601;28;19917;-83
2023/01/09 09:57:27;;;;;;;;;;;8.40;99.90;;;;;;5077893;28;19962;-81
2023/01/09 09:59:54;;;;;;;;;;;8.40;99.90;;;;;;5082087;28;19936;-80
2023/01/09 10:02:23;;;;;;;;;;;8.40;99.90;;;;;;5073841;28;19908;-81
2023/01/09 10:04:57;;;;;;;;;;;8.50;99.90;;;;;;5075832;28;19952;-81
2023/01/09 10:07:26;;;;;;;;;;;8.60;99.90;;;;;;5076519;28;19947;-81
2023/01/09 10:09:56;;;;;;;;;;;8.60;99.90;;;;;;5077473;28;19912;-81
2023/01/09 10:12:31;;;;;;;;;;;8.70;99.90;;;;;;5095344;28;20416;-81
2023/01/09 10:14:59;;;;;;;;;;;8.80;99.90;;;;;;5096014;28;19909;-81
2023/01/09 10:17:40;;;;;;;;;;;8.90;99.90;;;;;;5095832;28;19919;-81
2023/01/09 10:20:26;;;;;;;;;;;9.10;99.90;;;;;;5077750;28;19908;-80
2023/01/09 10:23:00;;;;;;;;;;;9.20;99.90;;;;;;5076046;28;20010;-81
2023/01/09 10:25:29;;;;;;;;;;;9.30;99.90;;;;;;5077183;28;20357;-81
2023/01/09 10:27:54;;;;;;;;;;;9.40;99.90;;;;;;5079251;28;19923;-81
2023/01/09 10:30:26;;;;;;;;;;;9.50;99.90;;;;;;5077525;28;20014;-82
2023/01/09 10:33:00;;;;;;;;;;;9.80;99.90;;;;;;5095059;28;19957;-81
2023/01/09 10:35:44;;;;;;;;;;;9.90;99.90;;;;;;5077136;28;20258;-81
2023/01/09 10:38:12;;;;;;;;;;;10.00;99.90;;;;;;5094943;28;19908;-82
2023/01/09 10:40:45;;;;;;;;;;;10.10;99.90;;;;;;5094942;28;19991;-81
2023/01/09 10:43:11;;;;;;;;;;;10.00;99.90;;;;;;5094528;28;19908;-81
2023/01/09 10:45:41;;;;;;;;;;;9.90;99.90;;;;;;5081759;22;19932;-83
2023/01/09 10:48:22;;;;;;;;;;;9.80;99.90;;;;;;5056207;28;20003;-83
2023/01/09 10:50:48;;;;;;;;;;;9.90;99.90;;;;;;5055419;28;19958;-83
2023/01/09 10:53:18;;;;;;;;;;;9.90;99.90;;;;;;5073012;28;19913;-85
2023/01/09 10:55:46;;;;;;;;;;;9.90;99.90;;;;;;5055912;28;20294;-86
2023/01/09 10:58:12;;;;;;;;;;;9.90;99.90;;;;;;5056031;28;20309;-83
2023/01/09 11:00:38;;;;;;;;;;;9.80;99.90;;;;;;5056057;28;19909;-83
2023/01/09 11:03:04;;;;;;;;;;;9.80;99.90;;;;;;5055684;28;20461;-82
2023/01/09 11:05:30;;;;;;;;;;;9.90;99.90;;;;;;5055290;28;19952;-86
2023/01/09 11:08:07;;;;;;;;;;;9.90;99.90;;;;;;5054946;28;19912;-85
2023/01/09 11:10:59;;;;;;;;;;;9.70;99.90;;;;;;5055618;28;19909;-83
2023/01/09 11:13:25;;;;;;;;;;;9.70;99.90;;;;;;5050570;28;19963;-83
2023/01/09 11:16:03;;;;;;;;;;;9.70;99.90;;;;;;5055935;28;20337;-82
2023/01/09 11:18:29;;;;;;;;;;;9.70;99.90;;;;;;5055097;28;20337;-83
2023/01/09 11:20:54;;;;;;;;;;;9.80;99.90;;;;;;5070886;28;19913;-83
2023/01/09 11:23:31;;;;;;;;;;;10.00;99.90;;;;;;5056365;28;19916;-85
2023/01/09 11:25:58;;;;;;;;;;;10.00;99.90;;;;;;5054569;28;19909;-85
2023/01/09 11:28:23;;;;;;;;;;;10.00;99.90;;;;;;5058124;28;19959;-83
2023/01/09 11:30:58;;;;;;;;;;;10.10;99.90;;;;;;5052750;28;19916;-82
2023/01/09 11:33:25;;;;;;;;;;;10.20;99.90;;;;;;5053745;28;19966;-83
2023/01/09 11:35:54;;;;;;;;;;;10.10;99.90;;;;;;5052261;28;20003;-83
2023/01/09 11:38:19;;;;;;;;;;;10.00;99.90;;;;;;5052073;28;19908;-82
2023/01/09 11:40:55;;;;;;;;;;;10.00;99.90;;;;;;5053557;28;19918;-83
2023/01/09 11:43:29;;;;;;;;;;;10.10;99.90;;;;;;5053500;28;20386;-83
2023/01/09 11:45:56;;;;;;;;;;;10.10;99.90;;;;;;5052004;28;19924;-83
2023/01/09 11:48:28;;;;;;;;;;;10.00;99.90;;;;;;5053487;28;19982;-82
2023/01/09 11:50:55;;;;;;;;;;;9.90;99.90;;;;;;5054274;28;19912;-82
2023/01/09 11:53:21;;;;;;;;;;;10.00;99.90;;;;;;5056536;28;19912;-84
2023/01/09 11:55:49;;;;;;;;;;;10.10;99.90;;;;;;5056078;28;19967;-82
2023/01/09 11:58:15;;;;;;;;;;;10.30;99.90;;;;;;5055383;28;19909;-82
2023/01/09 12:00:46;;;;;;;;;;;10.30;99.90;;;;;;5056223;28;19995;-82
2023/01/09 12:03:18;;;;;;;;;;;10.40;99.90;;;;;;5054351;28;19995;-82
2023/01/09 12:05:50;;;;;;;;;;;10.50;99.90;;;;;;5054396;28;19913;-82
2023/01/09 12:08:22;;;;;;;;;;;10.50;99.90;;;;;;5071477;28;20397;-82
2023/01/09 12:11:06;;;;;;;;;;;10.90;99.90;;;;;;5056143;28;19909;-81
2023/01/09 12:13:35;;;;;;;;;;;11.30;99.90;;;;;;5054870;28;20310;-84
2023/01/09 12:16:19;;;;;;;;;;;12.00;99.90;;;;;;5054267;28;19958;-81
2023/01/09 12:18:44;;;;;;;;;;;12.40;99.90;;;;;;5054826;28;19956;-81
2023/01/09 12:21:21;;;;;;;;;;;11.80;99.90;;;;;;5052261;28;19936;-81
2023/01/09 12:23:46;;;;;;;;;;;11.20;99.90;;;;;;5052863;28;20336;-80
2023/01/09 12:26:11;;;;;;;;;;;10.80;99.90;;;;;;5053608;28;19970;-82
2023/01/09 12:28:37;;;;;;;;;;;10.50;99.90;;;;;;5053021;28;19920;-84
2023/01/09 12:31:20;;;;;;;;;;;10.20;99.90;;;;;;5054645;28;19920;-81
2023/01/09 12:33:46;;;;;;;;;;;9.90;99.90;;;;;;5053220;28;20290;-83
2023/01/09 12:36:11;;;;;;;;;;;9.70;99.90;;;;;;5052624;28;19909;-82
2023/01/09 12:38:40;;;;;;;;;;;9.70;99.90;;;;;;5054279;28;19916;-83
2023/01/09 12:41:14;;;;;;;;;;;9.60;99.90;;;;;;5051538;28;19916;-83
2023/01/09 12:43:59;;;;;;;;;;;9.70;99.90;;;;;;5051979;28;20365;-84
2023/01/09 12:46:30;;;;;;;;;;;9.60;99.90;;;;;;5052680;28;19912;-82
2023/01/09 12:48:58;;;;;;;;;;;9.60;99.90;;;;;;5070087;28;20003;-82
2023/01/09 12:51:30;;;;;;;;;;;9.50;99.90;;;;;;5052388;28;20293;-85
2023/01/09 12:54:16;;;;;;;;;;;9.50;99.90;;;;;;5053903;28;19908;-82
2023/01/09 12:56:53;;;;;;;;;;;9.60;99.90;;;;;;5053978;28;19916;-83
2023/01/09 12:59:18;;;;;;;;;;;10.20;99.90;;;;;;5052946;28;19913;-82
2023/01/09 13:01:45;;;;;;;;;;;10.70;99.90;;;;;;5053375;28;19932;-82
2023/01/09 13:04:16;;;;;;;;;;;10.90;99.90;;;;;;5053481;28;19908;-82
2023/01/09 13:06:47;;;;;;;;;;;10.80;99.90;;;;;;5052490;28;19909;-83
2023/01/09 13:09:31;;;;;;;;;;;10.70;99.90;;;;;;5052656;28;19912;-83
2023/01/09 13:12:05;;;;;;;;;;;10.60;99.90;;;;;;5052860;28;19913;-83
2023/01/09 13:14:34;;;;;;;;;;;10.50;99.90;;;;;;5068615;28;19932;-83
2023/01/09 13:17:01;;;;;;;;;;;10.70;99.90;;;;;;5052998;28;19909;-82
2023/01/09 13:19:30;;;;;;;;;;;10.50;99.90;;;;;;5052259;28;19909;-82
2023/01/09 13:21:56;;;;;;;;;;;10.10;99.90;;;;;;5053255;28;19909;-81
2023/01/09 13:24:41;;;;;;;;;;;9.90;99.90;;;;;;5053081;28;20372;-81
2023/01/09 13:27:09;;;;;;;;;;;9.70;99.90;;;;;;5053047;28;19959;-82
2023/01/09 13:29:36;;;;;;;;;;;9.80;99.90;;;;;;5051399;28;19916;-83
2023/01/09 13:32:10;;;;;;;;;;;10.20;99.90;;;;;;5052148;28;20397;-83
2023/01/09 13:34:37;;;;;;;;;;;10.80;99.90;;;;;;5051182;28;19964;-83
2023/01/09 13:37:03;;;;;;;;;;;11.60;99.90;;;;;;5054388;28;19909;-82
2023/01/09 13:39:33;;;;;;;;;;;12.40;99.90;;;;;;5057125;28;20579;-83
2023/01/09 13:44:44;;;;;;;;;;;13.20;99.90;;;;;;5056939;28;19990;-83
2023/01/09 13:47:16;;;;;;;;;;;13.10;99.90;;;;;;5056143;28;19992;-83
2023/01/09 13:49:41;;;;;;;;;;;12.80;99.90;;;;;;5054616;28;19909;-83
2023/01/09 13:52:26;;;;;;;;;;;12.30;99.90;;;;;;5054985;28;20004;-82
2023/01/09 13:54:54;;;;;;;;;;;11.80;99.90;;;;;;5054392;28;19913;-82
2023/01/09 13:57:22;;;;;;;;;;;11.40;99.90;;;;;;5055652;28;19917;-82
2023/01/09 13:59:48;;;;;;;;;;;11.20;99.90;;;;;;5055442;28;19916;-82
2023/01/09 14:02:32;;;;;;;;;;;10.90;99.90;;;;;;5056031;28;20274;-82
2023/01/09 14:04:58;;;;;;;;;;;10.80;99.90;;;;;;5053677;28;19981;-81
2023/01/09 14:07:25;;;;;;;;;;;10.70;99.90;;;;;;5055613;28;19920;-82
2023/01/09 14:09:53;;;;;;;;;;;10.30;99.90;;;;;;5054867;28;19916;-83
2023/01/09 14:12:19;;;;;;;;;;;10.10;99.90;;;;;;5056515;28;19966;-81
2023/01/09 14:14:46;;;;;;;;;;;10.10;99.90;;;;;;5055035;28;19955;-83
2023/01/09 14:17:23;;;;;;;;;;;10.00;99.90;;;;;;5054725;28;19909;-82
2023/01/09 14:19:52;;;;;;;;;;;10.00;99.90;;;;;;5051977;28;19909;-82
2023/01/09 14:22:23;;;;;;;;;;;9.90;99.90;;;;;;5055620;28;20405;-81
2023/01/09 14:24:51;;;;;;;;;;;9.80;99.90;;;;;;5054920;28;19916;-83
2023/01/09 14:27:35;;;;;;;;;;;9.70;99.90;;;;;;5056187;28;19908;-83
2023/01/09 14:30:15;;;;;;;;;;;9.60;99.90;;;;;;5047795;28;19908;-83
2023/01/09 14:32:44;;;;;;;;;;;9.70;99.90;;;;;;5051270;28;19912;-82
2023/01/09 14:35:13;;;;;;;;;;;9.60;99.90;;;;;;5056458;28;19909;-83
2023/01/09 14:37:39;;;;;;;;;;;9.70;99.90;;;;;;5055426;28;19913;-83
2023/01/09 14:40:06;;;;;;;;;;;9.60;99.90;;;;;;5054801;28;20062;-82
2023/01/09 14:42:32;;;;;;;;;;;9.60;99.90;;;;;;5053000;28;19995;-81
2023/01/09 14:45:05;;;;;;;;;;;9.60;99.90;;;;;;5053129;28;20293;-83
2023/01/09 14:47:30;;;;;;;;;;;9.60;99.90;;;;;;5052458;28;19919;-83
2023/01/09 14:50:07;;;;;;;;;;;9.60;99.90;;;;;;5053246;28;20447;-81
2023/01/09 14:52:35;;;;;;;;;;;9.70;99.90;;;;;;5052757;28;19944;-81